createdAt,value
2023-02-13T00:00:41.228Z,100597.22
2023-02-13T00:06:09.161Z,100596.41
2023-02-13T00:11:40.134Z,100594.06
2023-02-13T00:17:05.138Z,100596.72
2023-02-13T00:22:33.403Z,100598.50
2023-02-13T00:28:00.195Z,100593.25
2023-02-13T00:33:24.167Z,100596.72
2023-02-13T00:38:52.325Z,100594.97
2023-02-13T00:44:16.231Z,100592.31
2023-02-13T00:49:41.167Z,100594.97
2023-02-13T00:55:08.202Z,100596.81
2023-02-13T01:00:33.341Z,100602.16
2023-02-13T01:05:58.180Z,100604.81
2023-02-13T01:11:32.294Z,100594.19
2023-02-13T01:16:57.178Z,100591.50
2023-02-13T01:22:24.205Z,100608.44
2023-02-13T01:27:52.207Z,100600.41
2023-02-13T01:33:16.194Z,100597.88
2023-02-13T01:38:41.193Z,100595.34
2023-02-13T01:44:11.172Z,100589.44
2023-02-13T01:49:36.186Z,100592.91
2023-02-13T01:55:03.213Z,100593.75
2023-02-13T02:00:32.204Z,100587.47
2023-02-13T02:05:58.235Z,100584.78
2023-02-13T02:11:35.463Z,100581.34
2023-02-13T02:17:03.186Z,100575.03
2023-02-13T02:22:57.217Z,100574.28
2023-02-13T02:28:55.215Z,100568.03
2023-02-13T02:34:33.213Z,100563.59
2023-02-13T02:40:11.239Z,100550.22
2023-02-13T02:45:42.232Z,100556.56
2023-02-13T02:51:17.270Z,100550.44
2023-02-13T02:56:51.229Z,100536.13
2023-02-13T03:02:34.238Z,100529.06
2023-02-13T03:08:08.412Z,100535.50
2023-02-13T03:13:48.256Z,100537.38
2023-02-13T03:19:27.236Z,100537.59
2023-02-13T03:25:08.241Z,100542.09
2023-02-13T03:31:00.788Z,100546.63
2023-02-13T03:36:48.221Z,100561.84
2023-02-13T03:42:20.258Z,100560.56
2023-02-13T03:47:46.248Z,100556.22
2023-02-13T03:53:15.253Z,100556.28
2023-02-13T03:58:59.280Z,100560.13
2023-02-13T04:04:28.263Z,100559.41
2023-02-13T04:09:53.264Z,100551.66
2023-02-13T04:15:28.430Z,100543.84
2023-02-13T04:20:53.313Z,100538.22
2023-02-13T04:26:21.272Z,100541.91
2023-02-13T04:31:49.410Z,100541.66
2023-02-13T04:37:14.291Z,100541.72
2023-02-13T04:42:39.494Z,100541.31
2023-02-13T04:48:09.513Z,100545.22
2023-02-13T04:53:34.301Z,100540.28
2023-02-13T04:58:58.303Z,100545.75
2023-02-13T05:04:27.352Z,100541.47
2023-02-13T05:09:51.493Z,100545.09
2023-02-13T05:15:17.324Z,100541.88
2023-02-13T05:20:44.287Z,100548.13
2023-02-13T05:26:10.432Z,100543.88
2023-02-13T05:31:34.372Z,100551.19
2023-02-13T05:37:02.701Z,100547.72
2023-02-13T05:42:26.369Z,100556.72
2023-02-13T05:47:51.365Z,100556.00
2023-02-13T05:53:20.286Z,100562.13
2023-02-13T05:58:45.364Z,100573.78
2023-02-13T06:04:10.336Z,100564.09
2023-02-13T06:09:38.331Z,100577.63
2023-02-13T06:15:02.335Z,100571.50
2023-02-13T06:20:28.345Z,100579.56
2023-02-13T06:25:55.347Z,100580.56
2023-02-13T06:31:20.356Z,100589.50
2023-02-13T06:36:45.345Z,100589.69
2023-02-13T06:42:13.681Z,100601.38
2023-02-13T06:47:37.323Z,100608.69
2023-02-13T06:53:02.317Z,100607.19
2023-02-13T06:58:29.315Z,100604.53
2023-02-13T07:03:57.382Z,100608.13
2023-02-13T07:09:23.366Z,100611.03
2023-02-13T07:14:51.329Z,100603.28
2023-02-13T07:20:16.341Z,100603.53
2023-02-13T07:25:42.368Z,100599.31
2023-02-13T07:31:09.488Z,100598.78
2023-02-13T07:36:34.361Z,100600.00
2023-02-13T07:41:58.368Z,100603.84
2023-02-13T07:47:26.733Z,100618.28
2023-02-13T07:52:50.402Z,100626.66
2023-02-13T07:58:15.490Z,100624.19
2023-02-13T08:03:44.490Z,100632.34
2023-02-13T08:09:21.358Z,100638.63
2023-02-13T08:14:45.354Z,100641.53
2023-02-13T08:20:17.572Z,100643.19
2023-02-13T08:25:41.419Z,100643.41
2023-02-13T08:36:31.370Z,100653.38
2023-02-13T08:41:56.506Z,100655.97
2023-02-13T08:47:20.358Z,100656.88
2023-02-13T08:52:48.531Z,100662.66
2023-02-13T08:58:15.378Z,100655.50
2023-02-13T09:03:40.385Z,100647.53
2023-02-13T09:09:14.419Z,100657.72
2023-02-13T09:14:40.375Z,100648.75
2023-02-13T09:20:06.399Z,100647.66
2023-02-13T09:25:34.447Z,100639.31
2023-02-13T09:30:58.758Z,100643.34
2023-02-13T09:36:26.441Z,100643.06
2023-02-13T09:41:56.413Z,100647.28
2023-02-13T09:47:26.413Z,100646.91
2023-02-13T09:52:53.398Z,100644.22
2023-02-13T09:58:28.416Z,100646.78
2023-02-13T10:04:00.420Z,100636.78
2023-02-13T10:09:40.478Z,100642.91
2023-02-13T10:15:19.560Z,100632.59
2023-02-13T10:20:50.453Z,100629.31
2023-02-13T10:26:21.657Z,100632.53
2023-02-13T10:31:48.586Z,100625.75
2023-02-13T10:37:19.485Z,100620.31
2023-02-13T10:42:54.452Z,100605.44
2023-02-13T10:48:37.552Z,100589.34
2023-02-13T10:54:14.462Z,100586.16
2023-02-13T11:00:03.468Z,100576.94
2023-02-13T11:05:35.439Z,100567.84
2023-02-13T11:11:08.443Z,100549.97
2023-02-13T11:16:33.440Z,100545.09
2023-02-13T11:22:03.459Z,100550.94
2023-02-13T11:32:50.465Z,100535.28
2023-02-13T11:38:33.624Z,100537.91
2023-02-13T11:44:07.522Z,100529.59
2023-02-13T11:49:34.430Z,100534.78
2023-02-13T11:55:11.441Z,100527.94
2023-02-13T12:00:44.445Z,100524.25
2023-02-13T12:06:28.440Z,100516.44
2023-02-13T12:12:12.578Z,100512.47
2023-02-13T12:17:50.867Z,100500.38
2023-02-13T12:23:38.501Z,100490.25
2023-02-13T12:29:37.515Z,100488.34
2023-02-13T12:35:24.557Z,100495.56
2023-02-13T12:41:04.564Z,100490.59
2023-02-13T12:46:39.958Z,100489.97
2023-02-13T12:52:18.472Z,100474.72
2023-02-13T12:57:57.508Z,100467.34
2023-02-13T13:03:43.478Z,100476.66
2023-02-13T13:09:25.576Z,100462.06
2023-02-13T13:14:58.500Z,100462.41
2023-02-13T13:21:03.476Z,100446.19
2023-02-13T13:26:38.493Z,100445.66
2023-02-13T13:32:09.514Z,100441.81
2023-02-13T13:37:45.513Z,100436.78
2023-02-13T13:43:18.492Z,100427.50
2023-02-13T13:49:07.713Z,100431.00
2023-02-13T13:54:40.524Z,100418.53
2023-02-13T14:00:34.561Z,100418.88
2023-02-13T14:06:21.559Z,100401.22
2023-02-13T14:11:54.527Z,100397.72
2023-02-13T14:17:20.492Z,100394.59
2023-02-13T14:22:48.511Z,100392.78
2023-02-13T14:28:17.702Z,100388.88
2023-02-13T14:33:43.495Z,100386.03
2023-02-13T14:39:11.520Z,100381.97
2023-02-13T14:44:43.509Z,100369.91
2023-02-13T14:50:08.731Z,100366.13
2023-02-13T14:55:43.544Z,100363.34
2023-02-13T15:01:16.693Z,100360.06
2023-02-13T15:06:39.544Z,100351.06
2023-02-13T15:12:10.544Z,100348.75
2023-02-13T15:17:44.729Z,100337.66
2023-02-13T15:23:09.585Z,100344.03
2023-02-13T15:28:35.601Z,100348.75
2023-02-13T15:34:05.566Z,100349.84
2023-02-13T15:39:34.588Z,100339.47
2023-02-13T15:45:01.723Z,100339.25
2023-02-13T15:50:33.587Z,100331.13
2023-02-13T15:56:13.562Z,100328.94
2023-02-13T16:01:40.627Z,100335.19
2023-02-13T16:07:10.706Z,100344.25
2023-02-13T16:12:37.618Z,100323.13
2023-02-13T16:18:02.741Z,100304.16
2023-02-13T16:23:31.706Z,100316.91
2023-02-13T16:28:55.619Z,100319.13
2023-02-13T16:34:25.597Z,100314.38
2023-02-13T16:39:52.591Z,100311.38
2023-02-13T16:45:33.760Z,100317.41
2023-02-13T16:50:58.888Z,100322.38
2023-02-13T16:56:26.588Z,100336.00
2023-02-13T17:01:50.567Z,100340.53
2023-02-13T17:07:22.594Z,100348.94
2023-02-13T17:12:56.582Z,100356.13
2023-02-13T17:18:21.747Z,100373.28
2023-02-13T17:23:46.610Z,100373.78
2023-02-13T17:29:14.657Z,100389.56
2023-02-13T17:34:39.611Z,100377.06
2023-02-13T17:40:04.589Z,100383.94
2023-02-13T17:45:33.934Z,100394.72
2023-02-13T17:50:59.933Z,100401.28
2023-02-13T17:56:30.636Z,100392.28
2023-02-13T18:01:59.628Z,100399.19
2023-02-13T18:07:24.628Z,100412.16
2023-02-13T18:12:53.254Z,100408.28
2023-02-13T18:18:22.698Z,100405.06
2023-02-13T18:23:47.627Z,100402.31
2023-02-13T18:29:11.627Z,100403.66
2023-02-13T18:34:39.634Z,100404.06
2023-02-13T18:40:04.669Z,100405.09
2023-02-13T18:45:29.633Z,100409.00
2023-02-13T18:50:58.004Z,100410.84
2023-02-13T18:56:22.638Z,100409.34
2023-02-13T19:01:47.713Z,100401.63
2023-02-13T19:07:15.820Z,100393.84
2023-02-13T19:12:46.634Z,100394.97
2023-02-13T19:18:11.651Z,100396.94
2023-02-13T19:23:38.839Z,100389.22
2023-02-13T19:29:05.686Z,100381.63
2023-02-13T19:34:29.675Z,100391.78
2023-02-13T19:39:57.685Z,100387.69
2023-02-13T19:45:23.660Z,100381.94
2023-02-13T19:50:48.689Z,100379.69
2023-02-13T19:56:19.852Z,100384.53
2023-02-13T20:01:44.756Z,100377.97
2023-02-13T20:07:08.726Z,100371.94
2023-02-13T20:12:36.738Z,100385.50
2023-02-13T20:18:00.670Z,100378.63
2023-02-13T20:23:26.700Z,100378.78
2023-02-13T20:28:54.677Z,100376.31
2023-02-13T20:34:20.716Z,100378.25
2023-02-13T20:39:46.692Z,100388.25
2023-02-13T20:45:21.750Z,100392.06
2023-02-13T20:50:46.655Z,100389.75
2023-02-13T20:56:19.681Z,100382.09
2023-02-13T21:01:48.693Z,100383.16
2023-02-13T21:07:15.699Z,100390.41
2023-02-13T21:12:41.727Z,100396.22
2023-02-13T21:18:09.835Z,100392.19
2023-02-13T21:23:34.702Z,100381.91
2023-02-13T21:29:01.429Z,100390.78
2023-02-13T21:34:32.725Z,100405.78
2023-02-13T21:39:57.713Z,100409.44
2023-02-13T21:45:23.731Z,100414.81
2023-02-13T21:50:50.716Z,100416.63
2023-02-13T21:56:20.906Z,100410.50
2023-02-13T22:01:48.734Z,100408.03
2023-02-13T22:07:19.062Z,100409.09
2023-02-13T22:12:49.738Z,100407.34
2023-02-13T22:18:14.794Z,100407.41
2023-02-13T22:23:41.764Z,100422.50
2023-02-13T22:29:09.700Z,100428.75
2023-02-13T22:34:34.949Z,100435.09
2023-02-13T22:40:02.758Z,100441.31
2023-02-13T22:45:26.792Z,100441.41
2023-02-13T22:50:51.754Z,100447.69
2023-02-13T22:56:19.739Z,100446.03
2023-02-13T23:01:44.783Z,100450.59
2023-02-13T23:07:09.796Z,100441.88
2023-02-13T23:12:47.740Z,100448.31
2023-02-13T23:18:24.767Z,100438.03
2023-02-13T23:23:51.865Z,100445.34
2023-02-13T23:29:19.763Z,100447.16
2023-02-13T23:34:43.799Z,100445.50
2023-02-13T23:40:09.722Z,100450.88
2023-02-13T23:45:56.765Z,100458.91
2023-02-13T23:51:21.753Z,100458.00
2023-02-13T23:56:46.762Z,100461.63
